sensor_id;sensor_type;location;lat;lon;timestamp;P1;durP1;ratioP1;P2;durP2;ratioP2
71570;SDS011;59407;42.682;23.322;2022-08-30T00:00:32;16.88;;;11.23;;
71570;SDS011;59407;42.682;23.322;2022-08-30T00:03:16;15.75;;;11.20;;
71570;SDS011;59407;42.682;23.322;2022-08-30T00:05:41;13.47;;;10.33;;
71570;SDS011;59407;42.682;23.322;2022-08-30T00:08:08;19.80;;;11.63;;
71570;SDS011;59407;42.682;23.322;2022-08-30T00:10:33;14.77;;;11.07;;
71570;SDS011;59407;42.682;23.322;2022-08-30T00:12:59;18.23;;;10.77;;
71570;SDS011;59407;42.682;23.322;2022-08-30T00:15:25;18.13;;;11.63;;
71570;SDS011;59407;42.682;23.322;2022-08-30T00:17:50;16.40;;;11.73;;
71570;SDS011;59407;42.682;23.322;2022-08-30T00:20:18;16.38;;;10.57;;
71570;SDS011;59407;42.682;23.322;2022-08-30T00:22:46;17.75;;;11.00;;
71570;SDS011;59407;42.682;23.322;2022-08-30T00:25:12;17.03;;;11.30;;
71570;SDS011;59407;42.682;23.322;2022-08-30T00:27:38;17.92;;;11.90;;
71570;SDS011;59407;42.682;23.322;2022-08-30T00:30:04;17.10;;;10.90;;
71570;SDS011;59407;42.682;23.322;2022-08-30T00:32:30;13.68;;;10.68;;
71570;SDS011;59407;42.682;23.322;2022-08-30T00:34:56;17.98;;;11.55;;
71570;SDS011;59407;42.682;23.322;2022-08-30T00:37:21;17.67;;;11.90;;
71570;SDS011;59407;42.682;23.322;2022-08-30T00:39:47;15.00;;;10.87;;
71570;SDS011;59407;42.682;23.322;2022-08-30T00:42:13;16.35;;;10.25;;
71570;SDS011;59407;42.682;23.322;2022-08-30T00:44:39;14.32;;;10.27;;
71570;SDS011;59407;42.682;23.322;2022-08-30T00:47:05;16.30;;;10.68;;
71570;SDS011;59407;42.682;23.322;2022-08-30T00:49:31;14.40;;;11.00;;
71570;SDS011;59407;42.682;23.322;2022-08-30T00:51:57;15.65;;;9.88;;
71570;SDS011;59407;42.682;23.322;2022-08-30T00:54:23;16.67;;;10.80;;
71570;SDS011;59407;42.682;23.322;2022-08-30T00:56:50;14.82;;;9.75;;
71570;SDS011;59407;42.682;23.322;2022-08-30T00:59:17;14.77;;;9.98;;
71570;SDS011;59407;42.682;23.322;2022-08-30T01:01:43;13.60;;;10.15;;
71570;SDS011;59407;42.682;23.322;2022-08-30T01:04:09;15.57;;;10.63;;
71570;SDS011;59407;42.682;23.322;2022-08-30T01:06:35;15.82;;;10.10;;
71570;SDS011;59407;42.682;23.322;2022-08-30T01:09:02;16.98;;;10.02;;
71570;SDS011;59407;42.682;23.322;2022-08-30T01:11:28;14.30;;;9.97;;
71570;SDS011;59407;42.682;23.322;2022-08-30T01:13:56;12.82;;;9.73;;
71570;SDS011;59407;42.682;23.322;2022-08-30T01:16:22;15.95;;;10.20;;
71570;SDS011;59407;42.682;23.322;2022-08-30T01:18:49;15.85;;;9.95;;
71570;SDS011;59407;42.682;23.322;2022-08-30T01:21:19;13.90;;;9.68;;
71570;SDS011;59407;42.682;23.322;2022-08-30T01:23:55;14.40;;;9.70;;
71570;SDS011;59407;42.682;23.322;2022-08-30T01:26:21;17.08;;;10.77;;
71570;SDS011;59407;42.682;23.322;2022-08-30T01:28:47;14.88;;;11.02;;
71570;SDS011;59407;42.682;23.322;2022-08-30T01:31:15;14.73;;;9.95;;
71570;SDS011;59407;42.682;23.322;2022-08-30T01:33:40;14.60;;;9.97;;
71570;SDS011;59407;42.682;23.322;2022-08-30T01:36:07;14.43;;;10.27;;
71570;SDS011;59407;42.682;23.322;2022-08-30T01:38:41;15.30;;;9.70;;
71570;SDS011;59407;42.682;23.322;2022-08-30T01:41:10;15.35;;;10.35;;
71570;SDS011;59407;42.682;23.322;2022-08-30T01:43:38;15.93;;;10.40;;
71570;SDS011;59407;42.682;23.322;2022-08-30T01:46:04;17.58;;;10.23;;
71570;SDS011;59407;42.682;23.322;2022-08-30T01:48:30;15.80;;;10.50;;
71570;SDS011;59407;42.682;23.322;2022-08-30T01:50:56;16.48;;;10.52;;
71570;SDS011;59407;42.682;23.322;2022-08-30T01:53:21;14.60;;;11.10;;
71570;SDS011;59407;42.682;23.322;2022-08-30T01:55:47;19.27;;;11.88;;
71570;SDS011;59407;42.682;23.322;2022-08-30T01:58:12;16.83;;;11.07;;
71570;SDS011;59407;42.682;23.322;2022-08-30T02:00:38;16.70;;;10.57;;
71570;SDS011;59407;42.682;23.322;2022-08-30T02:03:04;16.08;;;11.38;;
71570;SDS011;59407;42.682;23.322;2022-08-30T02:05:30;20.43;;;11.40;;
71570;SDS011;59407;42.682;23.322;2022-08-30T02:07:55;16.65;;;11.20;;
71570;SDS011;59407;42.682;23.322;2022-08-30T02:10:21;18.03;;;11.10;;
71570;SDS011;59407;42.682;23.322;2022-08-30T02:12:47;17.95;;;11.38;;
71570;SDS011;59407;42.682;23.322;2022-08-30T02:15:13;17.07;;;11.23;;
71570;SDS011;59407;42.682;23.322;2022-08-30T02:17:38;16.83;;;11.13;;
71570;SDS011;59407;42.682;23.322;2022-08-30T02:20:05;17.95;;;11.93;;
71570;SDS011;59407;42.682;23.322;2022-08-30T02:22:31;18.27;;;11.77;;
71570;SDS011;59407;42.682;23.322;2022-08-30T02:24:57;17.30;;;12.30;;
71570;SDS011;59407;42.682;23.322;2022-08-30T02:27:22;19.02;;;12.07;;
71570;SDS011;59407;42.682;23.322;2022-08-30T02:29:48;17.63;;;12.20;;
71570;SDS011;59407;42.682;23.322;2022-08-30T02:32:13;20.00;;;13.07;;
71570;SDS011;59407;42.682;23.322;2022-08-30T02:34:39;17.70;;;11.37;;
71570;SDS011;59407;42.682;23.322;2022-08-30T02:37:04;17.43;;;11.87;;
71570;SDS011;59407;42.682;23.322;2022-08-30T02:39:30;17.73;;;12.80;;
71570;SDS011;59407;42.682;23.322;2022-08-30T02:41:55;18.77;;;12.90;;
71570;SDS011;59407;42.682;23.322;2022-08-30T02:44:21;18.63;;;12.20;;
71570;SDS011;59407;42.682;23.322;2022-08-30T02:46:46;20.67;;;14.63;;
71570;SDS011;59407;42.682;23.322;2022-08-30T02:49:12;17.70;;;12.70;;
71570;SDS011;59407;42.682;23.322;2022-08-30T02:51:38;18.17;;;12.45;;
71570;SDS011;59407;42.682;23.322;2022-08-30T02:54:04;19.15;;;12.95;;
71570;SDS011;59407;42.682;23.322;2022-08-30T02:56:30;20.87;;;13.77;;
71570;SDS011;59407;42.682;23.322;2022-08-30T02:58:55;18.65;;;13.55;;
71570;SDS011;59407;42.682;23.322;2022-08-30T03:01:21;21.83;;;14.03;;
71570;SDS011;59407;42.682;23.322;2022-08-30T03:03:46;20.50;;;13.03;;
71570;SDS011;59407;42.682;23.322;2022-08-30T03:06:12;20.30;;;12.70;;
71570;SDS011;59407;42.682;23.322;2022-08-30T03:08:38;17.90;;;13.30;;
71570;SDS011;59407;42.682;23.322;2022-08-30T03:11:04;19.27;;;12.88;;
71570;SDS011;59407;42.682;23.322;2022-08-30T03:13:29;19.30;;;12.80;;
71570;SDS011;59407;42.682;23.322;2022-08-30T03:15:55;19.83;;;12.03;;
71570;SDS011;59407;42.682;23.322;2022-08-30T03:18:20;19.10;;;12.77;;
71570;SDS011;59407;42.682;23.322;2022-08-30T03:20:46;19.60;;;12.70;;
71570;SDS011;59407;42.682;23.322;2022-08-30T03:23:13;17.93;;;12.60;;
71570;SDS011;59407;42.682;23.322;2022-08-30T03:25:39;21.08;;;12.10;;
71570;SDS011;59407;42.682;23.322;2022-08-30T03:28:04;19.40;;;13.13;;
71570;SDS011;59407;42.682;23.322;2022-08-30T03:30:30;19.03;;;12.40;;
71570;SDS011;59407;42.682;23.322;2022-08-30T03:32:56;17.52;;;12.48;;
71570;SDS011;59407;42.682;23.322;2022-08-30T03:35:21;17.67;;;13.30;;
71570;SDS011;59407;42.682;23.322;2022-08-30T03:37:47;16.83;;;12.63;;
71570;SDS011;59407;42.682;23.322;2022-08-30T03:40:14;20.27;;;12.67;;
71570;SDS011;59407;42.682;23.322;2022-08-30T03:42:42;20.38;;;12.93;;
71570;SDS011;59407;42.682;23.322;2022-08-30T03:45:08;18.88;;;12.68;;
71570;SDS011;59407;42.682;23.322;2022-08-30T03:47:34;24.33;;;13.03;;
71570;SDS011;59407;42.682;23.322;2022-08-30T03:49:59;22.25;;;13.65;;
71570;SDS011;59407;42.682;23.322;2022-08-30T03:52:25;20.27;;;13.10;;
71570;SDS011;59407;42.682;23.322;2022-08-30T03:54:51;19.00;;;13.20;;
71570;SDS011;59407;42.682;23.322;2022-08-30T03:57:16;18.70;;;13.50;;
71570;SDS011;59407;42.682;23.322;2022-08-30T03:59:42;19.25;;;12.60;;
71570;SDS011;59407;42.682;23.322;2022-08-30T04:02:07;24.03;;;13.97;;
71570;SDS011;59407;42.682;23.322;2022-08-30T04:04:32;19.37;;;12.53;;
71570;SDS011;59407;42.682;23.322;2022-08-30T04:06:58;18.47;;;13.00;;
71570;SDS011;59407;42.682;23.322;2022-08-30T04:09:23;23.13;;;13.57;;
71570;SDS011;59407;42.682;23.322;2022-08-30T04:11:49;19.60;;;13.40;;
71570;SDS011;59407;42.682;23.322;2022-08-30T04:14:14;21.23;;;13.93;;
71570;SDS011;59407;42.682;23.322;2022-08-30T04:16:40;19.02;;;12.90;;
71570;SDS011;59407;42.682;23.322;2022-08-30T04:19:06;18.83;;;13.93;;
71570;SDS011;59407;42.682;23.322;2022-08-30T04:21:31;21.70;;;14.40;;
71570;SDS011;59407;42.682;23.322;2022-08-30T04:23:56;22.08;;;14.27;;
71570;SDS011;59407;42.682;23.322;2022-08-30T04:26:22;24.07;;;15.10;;
71570;SDS011;59407;42.682;23.322;2022-08-30T04:28:48;20.65;;;14.27;;
71570;SDS011;59407;42.682;23.322;2022-08-30T04:31:14;24.47;;;14.50;;
71570;SDS011;59407;42.682;23.322;2022-08-30T04:33:42;20.15;;;14.23;;
71570;SDS011;59407;42.682;23.322;2022-08-30T04:36:08;21.30;;;14.17;;
71570;SDS011;59407;42.682;23.322;2022-08-30T04:38:35;22.50;;;14.43;;
71570;SDS011;59407;42.682;23.322;2022-08-30T04:41:01;23.42;;;14.23;;
71570;SDS011;59407;42.682;23.322;2022-08-30T04:43:27;22.77;;;15.07;;
71570;SDS011;59407;42.682;23.322;2022-08-30T04:45:53;20.60;;;14.25;;
71570;SDS011;59407;42.682;23.322;2022-08-30T04:48:19;21.20;;;14.60;;
71570;SDS011;59407;42.682;23.322;2022-08-30T04:50:46;23.27;;;14.38;;
71570;SDS011;59407;42.682;23.322;2022-08-30T04:53:13;22.25;;;15.40;;
71570;SDS011;59407;42.682;23.322;2022-08-30T04:55:39;21.02;;;14.30;;
71570;SDS011;59407;42.682;23.322;2022-08-30T04:58:05;21.92;;;14.98;;
71570;SDS011;59407;42.682;23.322;2022-08-30T05:00:30;20.67;;;14.93;;
71570;SDS011;59407;42.682;23.322;2022-08-30T05:02:56;22.83;;;14.83;;
71570;SDS011;59407;42.682;23.322;2022-08-30T05:05:21;19.58;;;13.63;;
71570;SDS011;59407;42.682;23.322;2022-08-30T05:08:16;24.02;;;14.77;;
71570;SDS011;59407;42.682;23.322;2022-08-30T05:10:45;22.97;;;15.03;;
71570;SDS011;59407;42.682;23.322;2022-08-30T05:13:12;20.05;;;14.60;;
71570;SDS011;59407;42.682;23.322;2022-08-30T05:15:38;19.55;;;14.40;;
71570;SDS011;59407;42.682;23.322;2022-08-30T05:18:05;22.42;;;14.80;;
71570;SDS011;59407;42.682;23.322;2022-08-30T05:20:34;21.00;;;14.82;;
71570;SDS011;59407;42.682;23.322;2022-08-30T05:23:00;24.33;;;14.93;;
71570;SDS011;59407;42.682;23.322;2022-08-30T05:25:27;22.48;;;15.38;;
71570;SDS011;59407;42.682;23.322;2022-08-30T05:27:54;24.13;;;14.70;;
71570;SDS011;59407;42.682;23.322;2022-08-30T05:30:20;21.25;;;14.02;;
71570;SDS011;59407;42.682;23.322;2022-08-30T05:32:46;22.63;;;14.35;;
71570;SDS011;59407;42.682;23.322;2022-08-30T05:35:12;22.07;;;14.87;;
71570;SDS011;59407;42.682;23.322;2022-08-30T05:37:39;24.00;;;14.25;;
71570;SDS011;59407;42.682;23.322;2022-08-30T05:40:05;19.02;;;13.75;;
71570;SDS011;59407;42.682;23.322;2022-08-30T05:42:32;26.23;;;14.67;;
71570;SDS011;59407;42.682;23.322;2022-08-30T05:44:59;23.45;;;14.40;;
71570;SDS011;59407;42.682;23.322;2022-08-30T05:47:24;21.07;;;13.63;;
71570;SDS011;59407;42.682;23.322;2022-08-30T05:49:49;19.50;;;14.20;;
71570;SDS011;59407;42.682;23.322;2022-08-30T05:52:15;23.73;;;15.63;;
71570;SDS011;59407;42.682;23.322;2022-08-30T05:54:49;22.13;;;15.68;;
71570;SDS011;59407;42.682;23.322;2022-08-30T05:57:19;21.80;;;13.80;;
71570;SDS011;59407;42.682;23.322;2022-08-30T05:59:45;24.87;;;15.23;;
71570;SDS011;59407;42.682;23.322;2022-08-30T06:02:10;25.25;;;14.18;;
71570;SDS011;59407;42.682;23.322;2022-08-30T06:04:36;19.70;;;14.00;;
71570;SDS011;59407;42.682;23.322;2022-08-30T06:07:01;22.50;;;14.60;;
71570;SDS011;59407;42.682;23.322;2022-08-30T06:09:27;25.25;;;14.18;;
71570;SDS011;59407;42.682;23.322;2022-08-30T06:11:53;22.13;;;13.63;;
71570;SDS011;59407;42.682;23.322;2022-08-30T06:14:18;21.27;;;13.43;;
71570;SDS011;59407;42.682;23.322;2022-08-30T06:16:44;19.88;;;14.52;;
71570;SDS011;59407;42.682;23.322;2022-08-30T06:19:13;21.00;;;14.23;;
71570;SDS011;59407;42.682;23.322;2022-08-30T06:21:45;24.63;;;16.23;;
71570;SDS011;59407;42.682;23.322;2022-08-30T06:24:14;24.65;;;15.15;;
71570;SDS011;59407;42.682;23.322;2022-08-30T06:29:35;16.75;;;11.95;;
71570;SDS011;59407;42.682;23.322;2022-08-30T06:32:03;20.63;;;13.03;;
71570;SDS011;59407;42.682;23.322;2022-08-30T06:34:29;20.15;;;13.68;;
71570;SDS011;59407;42.682;23.322;2022-08-30T06:36:55;19.57;;;12.77;;
71570;SDS011;59407;42.682;23.322;2022-08-30T06:39:20;22.25;;;12.98;;
71570;SDS011;59407;42.682;23.322;2022-08-30T06:41:45;21.97;;;14.90;;
71570;SDS011;59407;42.682;23.322;2022-08-30T06:44:14;21.83;;;14.40;;
71570;SDS011;59407;42.682;23.322;2022-08-30T06:46:42;21.73;;;13.73;;
71570;SDS011;59407;42.682;23.322;2022-08-30T06:49:07;20.42;;;13.60;;
71570;SDS011;59407;42.682;23.322;2022-08-30T06:51:34;22.87;;;14.97;;
71570;SDS011;59407;42.682;23.322;2022-08-30T06:54:07;21.67;;;15.50;;
71570;SDS011;59407;42.682;23.322;2022-08-30T06:56:33;20.38;;;14.55;;
71570;SDS011;59407;42.682;23.322;2022-08-30T06:59:02;21.93;;;15.57;;
71570;SDS011;59407;42.682;23.322;2022-08-30T07:01:28;21.83;;;14.77;;
71570;SDS011;59407;42.682;23.322;2022-08-30T07:03:54;20.57;;;14.03;;
71570;SDS011;59407;42.682;23.322;2022-08-30T07:06:20;24.90;;;14.57;;
71570;SDS011;59407;42.682;23.322;2022-08-30T07:08:46;21.30;;;13.68;;
71570;SDS011;59407;42.682;23.322;2022-08-30T07:11:13;20.77;;;12.32;;
71570;SDS011;59407;42.682;23.322;2022-08-30T07:13:39;17.90;;;12.07;;
71570;SDS011;59407;42.682;23.322;2022-08-30T07:16:08;21.37;;;13.70;;
71570;SDS011;59407;42.682;23.322;2022-08-30T07:18:35;19.20;;;12.45;;
71570;SDS011;59407;42.682;23.322;2022-08-30T07:21:27;20.15;;;13.20;;
71570;SDS011;59407;42.682;23.322;2022-08-30T07:23:57;19.52;;;12.55;;
71570;SDS011;59407;42.682;23.322;2022-08-30T07:26:24;18.67;;;12.10;;
71570;SDS011;59407;42.682;23.322;2022-08-30T07:28:51;18.67;;;12.63;;
71570;SDS011;59407;42.682;23.322;2022-08-30T07:31:18;19.35;;;13.60;;
71570;SDS011;59407;42.682;23.322;2022-08-30T07:33:44;23.45;;;13.27;;
71570;SDS011;59407;42.682;23.322;2022-08-30T07:36:10;20.92;;;16.60;;
71570;SDS011;59407;42.682;23.322;2022-08-30T07:38:41;19.23;;;13.70;;
71570;SDS011;59407;42.682;23.322;2022-08-30T07:41:08;21.60;;;14.35;;
71570;SDS011;59407;42.682;23.322;2022-08-30T07:43:34;21.07;;;14.27;;
71570;SDS011;59407;42.682;23.322;2022-08-30T07:46:04;24.17;;;13.35;;
71570;SDS011;59407;42.682;23.322;2022-08-30T07:48:30;17.92;;;13.00;;
71570;SDS011;59407;42.682;23.322;2022-08-30T07:50:56;22.77;;;14.18;;
71570;SDS011;59407;42.682;23.322;2022-08-30T07:53:22;20.13;;;12.93;;
71570;SDS011;59407;42.682;23.322;2022-08-30T07:55:48;19.60;;;12.38;;
71570;SDS011;59407;42.682;23.322;2022-08-30T07:58:13;18.43;;;13.13;;
71570;SDS011;59407;42.682;23.322;2022-08-30T08:00:39;19.23;;;12.63;;
71570;SDS011;59407;42.682;23.322;2022-08-30T08:03:08;17.40;;;11.67;;
71570;SDS011;59407;42.682;23.322;2022-08-30T08:05:38;20.85;;;11.90;;
71570;SDS011;59407;42.682;23.322;2022-08-30T08:08:05;15.55;;;12.02;;
71570;SDS011;59407;42.682;23.322;2022-08-30T08:10:31;17.67;;;12.60;;
71570;SDS011;59407;42.682;23.322;2022-08-30T08:12:57;19.30;;;12.38;;
71570;SDS011;59407;42.682;23.322;2022-08-30T08:15:24;21.38;;;13.65;;
71570;SDS011;59407;42.682;23.322;2022-08-30T08:17:50;19.55;;;12.65;;
71570;SDS011;59407;42.682;23.322;2022-08-30T08:20:16;17.80;;;13.20;;
71570;SDS011;59407;42.682;23.322;2022-08-30T08:22:41;19.30;;;13.30;;
71570;SDS011;59407;42.682;23.322;2022-08-30T08:25:06;21.75;;;12.80;;
71570;SDS011;59407;42.682;23.322;2022-08-30T08:27:32;18.33;;;12.03;;
71570;SDS011;59407;42.682;23.322;2022-08-30T08:29:57;21.00;;;13.07;;
71570;SDS011;59407;42.682;23.322;2022-08-30T08:32:23;18.63;;;13.37;;
71570;SDS011;59407;42.682;23.322;2022-08-30T08:34:48;17.85;;;12.80;;
71570;SDS011;59407;42.682;23.322;2022-08-30T08:37:13;19.97;;;12.70;;
71570;SDS011;59407;42.682;23.322;2022-08-30T08:39:39;20.50;;;13.47;;
71570;SDS011;59407;42.682;23.322;2022-08-30T08:42:15;18.40;;;13.23;;
71570;SDS011;59407;42.682;23.322;2022-08-30T08:45:13;18.95;;;13.15;;
71570;SDS011;59407;42.682;23.322;2022-08-30T08:47:54;23.35;;;13.85;;
71570;SDS011;59407;42.682;23.322;2022-08-30T08:50:26;19.05;;;13.68;;
71570;SDS011;59407;42.682;23.322;2022-08-30T08:52:53;23.50;;;14.43;;
71570;SDS011;59407;42.682;23.322;2022-08-30T08:55:40;21.02;;;14.73;;
71570;SDS011;59407;42.682;23.322;2022-08-30T08:58:13;20.67;;;13.68;;
71570;SDS011;59407;42.682;23.322;2022-08-30T09:00:46;21.05;;;13.63;;
71570;SDS011;59407;42.682;23.322;2022-08-30T09:03:11;21.60;;;13.03;;
71570;SDS011;59407;42.682;23.322;2022-08-30T09:05:37;21.50;;;12.98;;
71570;SDS011;59407;42.682;23.322;2022-08-30T09:08:05;19.42;;;12.98;;
71570;SDS011;59407;42.682;23.322;2022-08-30T09:10:32;20.93;;;13.30;;
71570;SDS011;59407;42.682;23.322;2022-08-30T09:12:58;19.08;;;13.05;;
71570;SDS011;59407;42.682;23.322;2022-08-30T09:15:25;18.05;;;12.52;;
71570;SDS011;59407;42.682;23.322;2022-08-30T09:20:26;21.10;;;14.37;;
71570;SDS011;59407;42.682;23.322;2022-08-30T09:25:39;16.53;;;12.50;;
71570;SDS011;59407;42.682;23.322;2022-08-30T09:28:31;17.02;;;12.73;;
71570;SDS011;59407;42.682;23.322;2022-08-30T09:33:29;26.93;;;15.23;;
71570;SDS011;59407;42.682;23.322;2022-08-30T09:35:55;22.83;;;15.02;;
71570;SDS011;59407;42.682;23.322;2022-08-30T09:38:29;23.65;;;15.70;;
71570;SDS011;59407;42.682;23.322;2022-08-30T09:40:57;22.42;;;15.02;;
71570;SDS011;59407;42.682;23.322;2022-08-30T09:43:28;25.17;;;17.10;;
71570;SDS011;59407;42.682;23.322;2022-08-30T09:48:39;23.42;;;16.25;;
71570;SDS011;59407;42.682;23.322;2022-08-30T09:56:19;22.77;;;14.65;;
71570;SDS011;59407;42.682;23.322;2022-08-30T10:01:30;21.73;;;13.70;;
71570;SDS011;59407;42.682;23.322;2022-08-30T10:06:33;22.85;;;13.90;;
71570;SDS011;59407;42.682;23.322;2022-08-30T10:09:04;19.15;;;12.93;;
71570;SDS011;59407;42.682;23.322;2022-08-30T10:12:18;23.23;;;15.50;;
71570;SDS011;59407;42.682;23.322;2022-08-30T10:14:41;23.00;;;16.98;;
71570;SDS011;59407;42.682;23.322;2022-08-30T10:20:12;21.60;;;15.43;;
71570;SDS011;59407;42.682;23.322;2022-08-30T10:22:51;22.00;;;13.77;;
71570;SDS011;59407;42.682;23.322;2022-08-30T10:25:23;20.40;;;14.37;;
71570;SDS011;59407;42.682;23.322;2022-08-30T10:28:35;25.00;;;13.85;;
71570;SDS011;59407;42.682;23.322;2022-08-30T10:31:06;25.25;;;14.82;;
71570;SDS011;59407;42.682;23.322;2022-08-30T10:33:42;21.02;;;13.70;;
71570;SDS011;59407;42.682;23.322;2022-08-30T10:36:12;20.17;;;13.55;;
71570;SDS011;59407;42.682;23.322;2022-08-30T10:38:39;19.97;;;13.53;;
71570;SDS011;59407;42.682;23.322;2022-08-30T10:46:25;19.77;;;13.80;;
71570;SDS011;59407;42.682;23.322;2022-08-30T10:48:55;22.67;;;14.40;;
71570;SDS011;59407;42.682;23.322;2022-08-30T10:53:56;19.50;;;13.63;;
71570;SDS011;59407;42.682;23.322;2022-08-30T10:56:25;18.40;;;13.52;;
71570;SDS011;59407;42.682;23.322;2022-08-30T10:58:53;17.38;;;13.57;;
71570;SDS011;59407;42.682;23.322;2022-08-30T11:04:06;17.63;;;12.50;;
71570;SDS011;59407;42.682;23.322;2022-08-30T11:06:51;19.55;;;12.65;;
71570;SDS011;59407;42.682;23.322;2022-08-30T11:09:38;16.75;;;11.80;;
71570;SDS011;59407;42.682;23.322;2022-08-30T11:14:58;18.17;;;11.93;;
71570;SDS011;59407;42.682;23.322;2022-08-30T11:19:50;17.13;;;12.17;;
71570;SDS011;59407;42.682;23.322;2022-08-30T11:22:29;14.15;;;10.38;;
71570;SDS011;59407;42.682;23.322;2022-08-30T11:25:05;14.80;;;11.35;;
71570;SDS011;59407;42.682;23.322;2022-08-30T11:35:47;17.73;;;11.68;;
71570;SDS011;59407;42.682;23.322;2022-08-30T11:46:21;16.20;;;10.80;;
71570;SDS011;59407;42.682;23.322;2022-08-30T12:10:53;19.88;;;10.32;;
71570;SDS011;59407;42.682;23.322;2022-08-30T12:21:29;14.15;;;9.60;;
71570;SDS011;59407;42.682;23.322;2022-08-30T12:26:32;16.27;;;10.03;;
71570;SDS011;59407;42.682;23.322;2022-08-30T12:31:44;12.80;;;8.75;;
71570;SDS011;59407;42.682;23.322;2022-08-30T12:34:23;15.52;;;8.98;;
71570;SDS011;59407;42.682;23.322;2022-08-30T12:40:03;16.50;;;9.37;;
71570;SDS011;59407;42.682;23.322;2022-08-30T12:42:33;16.30;;;9.80;;
71570;SDS011;59407;42.682;23.322;2022-08-30T12:45:03;15.48;;;10.10;;
71570;SDS011;59407;42.682;23.322;2022-08-30T12:47:36;12.95;;;9.23;;
71570;SDS011;59407;42.682;23.322;2022-08-30T12:50:07;14.77;;;9.23;;
71570;SDS011;59407;42.682;23.322;2022-08-30T12:52:34;13.83;;;9.50;;
71570;SDS011;59407;42.682;23.322;2022-08-30T12:55:10;14.68;;;10.07;;
71570;SDS011;59407;42.682;23.322;2022-08-30T13:00:29;18.45;;;11.60;;
71570;SDS011;59407;42.682;23.322;2022-08-30T13:02:58;13.80;;;9.93;;
71570;SDS011;59407;42.682;23.322;2022-08-30T13:05:32;17.90;;;10.17;;
71570;SDS011;59407;42.682;23.322;2022-08-30T13:08:52;15.77;;;10.07;;
71570;SDS011;59407;42.682;23.322;2022-08-30T13:11:36;15.73;;;10.60;;
71570;SDS011;59407;42.682;23.322;2022-08-30T13:14:18;16.25;;;10.10;;
71570;SDS011;59407;42.682;23.322;2022-08-30T13:17:05;14.77;;;10.55;;
71570;SDS011;59407;42.682;23.322;2022-08-30T13:19:34;13.87;;;10.23;;
71570;SDS011;59407;42.682;23.322;2022-08-30T13:22:01;13.52;;;9.98;;
71570;SDS011;59407;42.682;23.322;2022-08-30T13:24:27;14.48;;;10.27;;
71570;SDS011;59407;42.682;23.322;2022-08-30T13:26:54;17.17;;;11.07;;
71570;SDS011;59407;42.682;23.322;2022-08-30T13:29:21;22.48;;;11.65;;
71570;SDS011;59407;42.682;23.322;2022-08-30T13:31:50;15.77;;;11.50;;
71570;SDS011;59407;42.682;23.322;2022-08-30T13:34:15;17.67;;;11.52;;
71570;SDS011;59407;42.682;23.322;2022-08-30T13:36:51;16.67;;;11.13;;
71570;SDS011;59407;42.682;23.322;2022-08-30T13:39:18;18.27;;;11.10;;
71570;SDS011;59407;42.682;23.322;2022-08-30T13:41:43;19.55;;;12.05;;
71570;SDS011;59407;42.682;23.322;2022-08-30T13:44:09;17.57;;;10.90;;
71570;SDS011;59407;42.682;23.322;2022-08-30T13:46:34;15.97;;;11.67;;
71570;SDS011;59407;42.682;23.322;2022-08-30T13:49:07;16.35;;;10.95;;
71570;SDS011;59407;42.682;23.322;2022-08-30T13:51:34;18.88;;;11.25;;
71570;SDS011;59407;42.682;23.322;2022-08-30T13:54:02;16.43;;;10.90;;
71570;SDS011;59407;42.682;23.322;2022-08-30T13:56:28;24.20;;;11.25;;
71570;SDS011;59407;42.682;23.322;2022-08-30T13:58:55;15.82;;;11.65;;
71570;SDS011;59407;42.682;23.322;2022-08-30T14:01:24;20.00;;;11.20;;
71570;SDS011;59407;42.682;23.322;2022-08-30T14:03:50;17.02;;;11.60;;
71570;SDS011;59407;42.682;23.322;2022-08-30T14:06:15;13.87;;;11.03;;
71570;SDS011;59407;42.682;23.322;2022-08-30T14:08:40;18.07;;;11.20;;
71570;SDS011;59407;42.682;23.322;2022-08-30T14:11:06;16.47;;;10.40;;
71570;SDS011;59407;42.682;23.322;2022-08-30T14:13:31;15.83;;;10.50;;
71570;SDS011;59407;42.682;23.322;2022-08-30T14:15:58;13.30;;;10.40;;
71570;SDS011;59407;42.682;23.322;2022-08-30T14:18:24;16.38;;;10.70;;
71570;SDS011;59407;42.682;23.322;2022-08-30T14:20:50;17.47;;;11.00;;
71570;SDS011;59407;42.682;23.322;2022-08-30T14:23:15;15.38;;;10.82;;
71570;SDS011;59407;42.682;23.322;2022-08-30T14:25:41;22.40;;;16.50;;
71570;SDS011;59407;42.682;23.322;2022-08-30T14:28:06;16.90;;;12.23;;
71570;SDS011;59407;42.682;23.322;2022-08-30T14:30:35;17.58;;;12.50;;
71570;SDS011;59407;42.682;23.322;2022-08-30T14:33:03;18.50;;;11.98;;
71570;SDS011;59407;42.682;23.322;2022-08-30T14:35:28;17.10;;;11.00;;
71570;SDS011;59407;42.682;23.322;2022-08-30T14:37:54;16.52;;;10.02;;
71570;SDS011;59407;42.682;23.322;2022-08-30T14:40:21;14.13;;;10.20;;
71570;SDS011;59407;42.682;23.322;2022-08-30T14:42:52;15.98;;;10.52;;
71570;SDS011;59407;42.682;23.322;2022-08-30T14:45:20;14.32;;;10.10;;
71570;SDS011;59407;42.682;23.322;2022-08-30T14:48:01;14.32;;;10.02;;
71570;SDS011;59407;42.682;23.322;2022-08-30T14:50:31;17.65;;;10.38;;
71570;SDS011;59407;42.682;23.322;2022-08-30T14:53:00;17.43;;;10.57;;
71570;SDS011;59407;42.682;23.322;2022-08-30T14:55:33;14.32;;;10.93;;
71570;SDS011;59407;42.682;23.322;2022-08-30T14:58:17;14.10;;;10.70;;
71570;SDS011;59407;42.682;23.322;2022-08-30T15:00:52;19.77;;;10.60;;
71570;SDS011;59407;42.682;23.322;2022-08-30T15:06:47;13.55;;;9.45;;
71570;SDS011;59407;42.682;23.322;2022-08-30T15:09:18;13.13;;;9.60;;
71570;SDS011;59407;42.682;23.322;2022-08-30T15:11:48;13.57;;;9.57;;
71570;SDS011;59407;42.682;23.322;2022-08-30T15:14:25;15.38;;;10.18;;
71570;SDS011;59407;42.682;23.322;2022-08-30T15:16:58;14.93;;;10.02;;
71570;SDS011;59407;42.682;23.322;2022-08-30T15:19:33;12.48;;;9.77;;
71570;SDS011;59407;42.682;23.322;2022-08-30T15:22:09;15.50;;;10.13;;
71570;SDS011;59407;42.682;23.322;2022-08-30T15:24:45;14.65;;;10.57;;
71570;SDS011;59407;42.682;23.322;2022-08-30T15:27:18;17.23;;;10.60;;
71570;SDS011;59407;42.682;23.322;2022-08-30T15:30:10;16.88;;;11.25;;
71570;SDS011;59407;42.682;23.322;2022-08-30T15:32:42;19.88;;;11.57;;
71570;SDS011;59407;42.682;23.322;2022-08-30T15:35:07;22.17;;;15.13;;
71570;SDS011;59407;42.682;23.322;2022-08-30T15:37:39;14.80;;;12.38;;
71570;SDS011;59407;42.682;23.322;2022-08-30T15:40:12;14.47;;;11.70;;
71570;SDS011;59407;42.682;23.322;2022-08-30T15:42:40;13.90;;;10.95;;
71570;SDS011;59407;42.682;23.322;2022-08-30T15:45:06;17.70;;;12.23;;
71570;SDS011;59407;42.682;23.322;2022-08-30T15:47:52;19.63;;;11.75;;
71570;SDS011;59407;42.682;23.322;2022-08-30T15:53:03;21.85;;;13.60;;
71570;SDS011;59407;42.682;23.322;2022-08-30T15:55:30;18.10;;;12.77;;
71570;SDS011;59407;42.682;23.322;2022-08-30T15:57:55;18.13;;;11.20;;
71570;SDS011;59407;42.682;23.322;2022-08-30T16:00:21;18.27;;;11.30;;
71570;SDS011;59407;42.682;23.322;2022-08-30T16:02:46;18.20;;;12.80;;